createdAt,value
2022-08-05T00:00:46.223Z,23.70
2022-08-05T00:03:15.596Z,23.70
2022-08-05T00:06:06.385Z,23.70
2022-08-05T00:08:34.625Z,23.70
2022-08-05T00:11:01.334Z,23.60
2022-08-05T00:13:38.295Z,23.60
2022-08-05T00:16:06.306Z,23.50
2022-08-05T00:18:32.859Z,23.50
2022-08-05T00:20:57.084Z,23.50
2022-08-05T00:23:44.340Z,23.50
2022-08-05T00:26:07.336Z,23.50
2022-08-05T00:28:31.049Z,23.30
2022-08-05T00:30:56.755Z,23.30
2022-08-05T00:34:55.523Z,23.30
2022-08-05T00:36:16.530Z,23.30
2022-08-05T00:38:55.849Z,23.20
2022-08-05T00:41:52.165Z,23.10
2022-08-05T00:44:16.694Z,23.10
2022-08-05T00:46:42.634Z,23.10
2022-08-05T00:49:07.802Z,23.10
2022-08-05T00:51:50.559Z,23.00
2022-08-05T00:54:15.746Z,23.00
2022-08-05T00:56:47.061Z,23.00
2022-08-05T00:59:15.358Z,22.80
2022-08-05T01:01:42.637Z,22.80
2022-08-05T01:04:14.253Z,22.90
2022-08-05T01:06:39.392Z,22.90
2022-08-05T01:09:06.303Z,22.90
2022-08-05T01:11:37.217Z,22.90
2022-08-05T01:14:15.346Z,22.90
2022-08-05T01:16:47.252Z,22.90
2022-08-05T01:19:56.470Z,22.90
2022-08-05T01:22:41.975Z,22.90
2022-08-05T01:25:53.513Z,22.90
2022-08-05T01:28:28.353Z,23.00
2022-08-05T01:30:58.028Z,22.90
2022-08-05T01:33:26.330Z,22.90
2022-08-05T01:35:53.262Z,22.90
2022-08-05T01:38:27.016Z,22.90
2022-08-05T01:40:55.757Z,22.90
2022-08-05T01:43:24.118Z,23.00
2022-08-05T01:45:56.111Z,22.90
2022-08-05T01:48:22.284Z,22.90
2022-08-05T01:50:50.980Z,22.90
2022-08-05T01:53:54.993Z,22.90
2022-08-05T01:56:04.923Z,22.90
2022-08-05T01:58:41.070Z,23.00
2022-08-05T02:01:16.139Z,22.90
2022-08-05T02:03:50.381Z,22.90
2022-08-05T02:06:37.825Z,22.90
2022-08-05T02:08:59.411Z,22.90
2022-08-05T02:11:24.112Z,22.90
2022-08-05T02:14:12.490Z,22.90
2022-08-05T02:16:46.903Z,22.90
2022-08-05T02:19:27.232Z,22.90
2022-08-05T02:21:57.380Z,22.90
2022-08-05T02:24:29.251Z,22.90
2022-08-05T02:26:57.888Z,22.90
2022-08-05T02:29:59.966Z,22.90
2022-08-05T02:32:23.913Z,22.90
2022-08-05T02:34:54.933Z,22.90
2022-08-05T02:37:20.578Z,22.90
2022-08-05T02:39:47.725Z,22.90
2022-08-05T02:42:25.827Z,22.90
2022-08-05T02:44:52.728Z,22.90
2022-08-05T02:47:18.723Z,22.90
2022-08-05T02:49:44.571Z,22.90
2022-08-05T02:52:25.793Z,22.90
2022-08-05T02:54:54.589Z,22.90
2022-08-05T02:58:11.823Z,22.90
2022-08-05T03:00:06.841Z,22.80
2022-08-05T03:02:36.645Z,22.80
2022-08-05T03:05:01.308Z,22.80
2022-08-05T03:08:00.670Z,22.80
2022-08-05T03:10:13.406Z,22.80
2022-08-05T03:12:39.894Z,22.80
2022-08-05T03:15:06.984Z,22.80
2022-08-05T03:17:34.400Z,22.90
2022-08-05T03:20:07.128Z,22.80
2022-08-05T03:22:34.113Z,22.90
2022-08-05T03:25:02.097Z,22.80
2022-08-05T03:27:57.957Z,22.90
2022-08-05T03:30:20.877Z,22.90
2022-08-05T03:32:56.460Z,22.90
2022-08-05T03:35:20.540Z,22.90
2022-08-05T03:37:46.002Z,22.90
2022-08-05T03:40:13.159Z,22.90
2022-08-05T03:42:41.583Z,22.80
2022-08-05T03:45:22.057Z,22.90
2022-08-05T03:47:46.692Z,22.80
2022-08-05T03:50:14.610Z,22.90
2022-08-05T03:55:50.834Z,22.80
2022-08-05T03:56:04.593Z,22.80
2022-08-05T03:58:28.938Z,22.80
2022-08-05T04:00:54.691Z,22.80
2022-08-05T04:03:28.594Z,22.80
2022-08-05T04:05:54.731Z,22.80
2022-08-05T04:08:34.712Z,22.70
2022-08-05T04:11:01.060Z,22.60
2022-08-05T04:13:25.553Z,22.60
2022-08-05T04:16:03.353Z,22.70
2022-08-05T04:18:29.019Z,22.70
2022-08-05T04:20:59.095Z,22.70
2022-08-05T04:24:04.910Z,22.70
2022-08-05T04:26:09.220Z,22.70
2022-08-05T04:28:37.372Z,22.80
2022-08-05T04:31:15.116Z,22.80
2022-08-05T04:34:19.341Z,22.90
2022-08-05T04:36:46.610Z,22.90
2022-08-05T04:39:08.906Z,23.00
2022-08-05T04:41:37.192Z,23.00
2022-08-05T04:44:02.501Z,23.10
2022-08-05T04:46:33.572Z,23.20
2022-08-05T04:48:58.734Z,23.20
2022-08-05T04:51:24.083Z,23.30
2022-08-05T04:53:48.500Z,23.40
2022-08-05T04:56:33.742Z,23.50
2022-08-05T04:58:56.045Z,23.60
2022-08-05T05:02:05.970Z,23.70
2022-08-05T05:04:04.688Z,23.80
2022-08-05T05:06:39.000Z,23.90
2022-08-05T05:09:08.017Z,24.00
2022-08-05T05:11:41.593Z,24.00
2022-08-05T05:14:16.319Z,24.10
2022-08-05T05:16:40.071Z,24.10
2022-08-05T05:19:18.671Z,24.20
2022-08-05T05:21:44.759Z,24.30
2022-08-05T05:24:10.409Z,24.40
2022-08-05T05:26:34.954Z,24.50
2022-08-05T05:28:59.332Z,24.50
2022-08-05T05:31:23.277Z,24.50
2022-08-05T05:33:59.697Z,24.50
2022-08-05T05:36:25.612Z,24.50
2022-08-05T05:38:54.033Z,24.60
2022-08-05T05:41:18.520Z,24.60
2022-08-05T05:43:56.872Z,24.60
2022-08-05T05:46:24.180Z,24.60
2022-08-05T05:48:49.172Z,24.60
2022-08-05T05:51:15.587Z,24.70
2022-08-05T05:53:54.323Z,24.70
2022-08-05T05:56:26.200Z,24.80
2022-08-05T05:58:57.217Z,24.80
2022-08-05T06:01:30.374Z,24.80
2022-08-05T06:04:03.938Z,24.80
2022-08-05T06:06:31.029Z,24.80
2022-08-05T06:08:55.200Z,24.70
2022-08-05T06:11:19.315Z,24.60
2022-08-05T06:13:50.533Z,24.60
2022-08-05T06:16:28.192Z,24.50
2022-08-05T06:18:55.831Z,24.50
2022-08-05T06:21:23.871Z,24.50
2022-08-05T06:24:00.085Z,24.40
2022-08-05T06:26:25.436Z,24.40
2022-08-05T06:28:57.094Z,24.30
2022-08-05T06:31:22.028Z,24.40
2022-08-05T06:34:07.263Z,24.60
2022-08-05T06:36:30.015Z,24.80
2022-08-05T06:39:13.847Z,25.10
2022-08-05T06:41:41.287Z,25.10
2022-08-05T06:44:06.820Z,25.20
2022-08-05T06:46:30.727Z,25.30
2022-08-05T06:48:58.856Z,25.40
2022-08-05T06:51:29.084Z,25.80
2022-08-05T06:53:54.088Z,26.00
2022-08-05T06:56:26.313Z,26.20
2022-08-05T06:58:50.684Z,26.60
2022-08-05T07:01:15.863Z,26.60
2022-08-05T07:03:44.880Z,26.70
2022-08-05T07:06:14.422Z,26.50
2022-08-05T07:08:39.015Z,26.50
2022-08-05T07:11:06.229Z,26.50
2022-08-05T07:13:59.839Z,26.30
2022-08-05T07:18:01.402Z,26.40
2022-08-05T07:20:05.819Z,26.20
2022-08-05T07:22:10.688Z,26.00
2022-08-05T07:24:43.721Z,25.90
2022-08-05T07:27:16.049Z,26.10
2022-08-05T07:30:23.909Z,26.10
2022-08-05T07:32:26.291Z,26.10
2022-08-05T07:34:50.187Z,26.10
2022-08-05T07:37:21.872Z,26.10
2022-08-05T07:40:27.050Z,26.10
2022-08-05T07:42:33.776Z,26.20
2022-08-05T07:44:57.796Z,25.80
2022-08-05T07:47:25.827Z,25.80
2022-08-05T07:49:54.216Z,25.80
2022-08-05T07:52:18.419Z,25.70
2022-08-05T07:54:47.625Z,25.40
2022-08-05T07:57:50.581Z,25.30
2022-08-05T07:59:57.788Z,25.30
2022-08-05T08:02:31.241Z,25.20
2022-08-05T08:05:12.533Z,25.00
2022-08-05T08:07:39.425Z,24.80
2022-08-05T08:10:03.768Z,24.80
2022-08-05T08:12:37.959Z,25.00
2022-08-05T08:15:15.842Z,24.90
2022-08-05T08:17:46.261Z,24.80
2022-08-05T08:20:42.795Z,24.80
2022-08-05T08:23:03.299Z,24.80
2022-08-05T08:26:00.031Z,24.80
2022-08-05T08:28:18.779Z,24.70
2022-08-05T08:30:56.868Z,24.70
2022-08-05T08:33:22.776Z,24.50
2022-08-05T08:35:52.691Z,24.40
2022-08-05T08:38:18.247Z,24.30
2022-08-05T08:41:01.099Z,24.40
2022-08-05T08:45:17.009Z,24.40
2022-08-05T08:46:15.645Z,24.40
2022-08-05T08:49:06.077Z,24.50
2022-08-05T08:52:03.127Z,24.50
2022-08-05T08:54:17.556Z,24.50
2022-08-05T08:56:47.907Z,24.50
2022-08-05T08:59:19.333Z,24.60
2022-08-05T09:01:44.929Z,24.50
2022-08-05T09:04:23.185Z,24.50
2022-08-05T09:06:54.565Z,24.50
2022-08-05T09:09:18.373Z,24.50
2022-08-05T09:11:53.091Z,24.60
2022-08-05T09:14:57.953Z,24.60
2022-08-05T09:17:09.448Z,24.60
2022-08-05T09:20:01.826Z,24.50
2022-08-05T09:22:31.810Z,24.60
2022-08-05T09:25:00.423Z,24.60
2022-08-05T09:28:04.081Z,24.50
2022-08-05T09:30:19.122Z,24.60
2022-08-05T09:32:47.376Z,24.50
2022-08-05T09:35:26.303Z,24.50
2022-08-05T09:38:16.459Z,24.60
2022-08-05T09:40:51.857Z,24.80
2022-08-05T09:43:40.588Z,24.80
2022-08-05T09:46:11.975Z,24.90
2022-08-05T09:48:39.716Z,24.90
2022-08-05T09:51:15.352Z,24.80
2022-08-05T09:53:54.327Z,24.70
2022-08-05T09:56:27.092Z,24.80
2022-08-05T09:59:04.093Z,24.60
2022-08-05T10:01:32.595Z,24.50
2022-08-05T10:04:00.434Z,24.50
2022-08-05T10:06:25.821Z,24.40
2022-08-05T10:08:50.291Z,24.40
2022-08-05T10:11:18.968Z,24.40
2022-08-05T10:13:47.836Z,24.40
2022-08-05T10:16:33.975Z,24.40
2022-08-05T10:18:58.489Z,24.40
2022-08-05T10:21:23.020Z,24.40
2022-08-05T10:23:59.375Z,24.50
2022-08-05T10:26:32.759Z,24.60
2022-08-05T10:28:57.798Z,24.60
2022-08-05T10:32:53.603Z,24.60
2022-08-05T10:34:08.144Z,24.70
2022-08-05T10:36:32.190Z,24.80
2022-08-05T10:39:10.305Z,25.00
2022-08-05T10:41:47.805Z,24.90
2022-08-05T10:44:15.012Z,24.70
2022-08-05T10:46:50.945Z,24.80
2022-08-05T10:49:18.647Z,24.90
2022-08-05T10:52:00.237Z,25.00
2022-08-05T10:54:56.786Z,25.40
2022-08-05T10:57:31.701Z,25.70
2022-08-05T11:00:19.842Z,26.00
2022-08-05T11:03:24.419Z,26.30
2022-08-05T11:06:15.450Z,26.40
2022-08-05T11:09:16.723Z,26.60
2022-08-05T11:11:52.811Z,26.70
2022-08-05T11:14:57.886Z,26.90
2022-08-05T11:17:58.705Z,27.20
2022-08-05T11:20:41.756Z,27.50
2022-08-05T11:24:04.787Z,27.70
2022-08-05T11:26:28.857Z,27.90
2022-08-05T11:29:06.854Z,28.00
2022-08-05T11:31:58.660Z,28.40
2022-08-05T11:34:38.485Z,28.50
2022-08-05T11:37:02.569Z,28.90
2022-08-05T11:39:55.259Z,29.00
2022-08-05T11:42:28.018Z,29.20
2022-08-05T11:44:56.336Z,29.10
2022-08-05T11:47:49.340Z,29.20
2022-08-05T11:50:09.983Z,29.50
2022-08-05T11:52:38.289Z,29.60
2022-08-05T11:55:07.603Z,29.30
2022-08-05T11:57:39.331Z,29.60
2022-08-05T12:00:30.421Z,30.10
2022-08-05T12:02:54.385Z,30.20
2022-08-05T12:05:36.382Z,30.10
2022-08-05T12:08:11.254Z,30.40
2022-08-05T12:10:43.839Z,30.80
2022-08-05T12:13:15.491Z,30.80
2022-08-05T12:15:45.342Z,30.90
2022-08-05T12:18:20.559Z,31.40
2022-08-05T12:20:44.543Z,31.60
2022-08-05T12:23:10.483Z,31.80
2022-08-05T12:25:50.343Z,32.10
2022-08-05T12:28:15.089Z,31.80
2022-08-05T12:30:45.715Z,31.80
2022-08-05T12:33:27.806Z,32.00
2022-08-05T12:35:53.999Z,31.80
2022-08-05T12:38:18.016Z,31.50
2022-08-05T12:40:46.286Z,31.80
2022-08-05T12:43:10.037Z,32.00
2022-08-05T12:45:42.724Z,32.30
2022-08-05T12:48:27.369Z,32.00
2022-08-05T12:52:10.299Z,32.00
2022-08-05T12:54:03.325Z,32.00
2022-08-05T12:56:35.405Z,31.90
2022-08-05T12:59:21.121Z,31.60
2022-08-05T13:02:07.354Z,31.80
2022-08-05T13:04:34.752Z,31.90
2022-08-05T13:07:10.931Z,31.80
2022-08-05T13:09:41.268Z,32.00
2022-08-05T13:12:16.101Z,31.60
2022-08-05T13:14:42.617Z,31.50
2022-08-05T13:17:11.487Z,31.50
2022-08-05T13:19:51.631Z,31.10
2022-08-05T13:22:28.503Z,31.10
2022-08-05T13:24:58.113Z,31.40
2022-08-05T13:27:37.458Z,31.30
2022-08-05T13:30:34.254Z,31.20
2022-08-05T13:32:50.616Z,30.80
2022-08-05T13:35:31.333Z,30.80
2022-08-05T13:38:04.866Z,30.80
2022-08-05T13:40:47.977Z,30.50
2022-08-05T13:43:13.759Z,30.60
2022-08-05T13:45:45.990Z,30.40
2022-08-05T13:48:57.792Z,30.10
2022-08-05T13:50:56.204Z,30.20
2022-08-05T13:53:20.312Z,30.30
2022-08-05T13:55:50.104Z,30.30
2022-08-05T13:58:30.972Z,30.40
2022-08-05T14:00:54.977Z,30.30
2022-08-05T14:03:18.693Z,30.20
2022-08-05T14:06:24.595Z,30.10
2022-08-05T14:08:27.468Z,30.00
2022-08-05T14:10:52.101Z,30.10
2022-08-05T14:13:16.284Z,30.20
2022-08-05T14:16:08.865Z,30.50
2022-08-05T14:18:24.183Z,30.70
2022-08-05T14:20:48.683Z,30.90
2022-08-05T14:23:12.616Z,30.90
2022-08-05T14:25:45.100Z,31.20
2022-08-05T14:28:09.145Z,30.70
2022-08-05T14:30:49.867Z,30.70
2022-08-05T14:33:22.872Z,30.50
2022-08-05T14:35:51.918Z,30.50
2022-08-05T14:38:32.558Z,30.50
2022-08-05T14:41:01.129Z,30.70
2022-08-05T14:43:59.243Z,30.40
2022-08-05T14:46:08.860Z,30.20
2022-08-05T14:48:33.756Z,30.00
2022-08-05T14:50:57.852Z,29.90
2022-08-05T14:53:21.636Z,29.80
2022-08-05T14:55:52.091Z,29.50
2022-08-05T14:58:17.796Z,29.50
2022-08-05T15:00:59.467Z,29.40
2022-08-05T15:03:24.011Z,29.40
2022-08-05T15:06:06.907Z,29.10
2022-08-05T15:08:37.967Z,28.80
2022-08-05T15:11:16.058Z,28.50
2022-08-05T15:13:46.049Z,28.50
2022-08-05T15:16:14.404Z,28.30
2022-08-05T15:18:38.630Z,28.10
2022-08-05T15:21:07.400Z,28.00
2022-08-05T15:23:31.756Z,27.70
2022-08-05T15:25:59.724Z,27.60
2022-08-05T15:28:27.335Z,27.40
2022-08-05T15:30:53.595Z,27.30
2022-08-05T15:34:04.126Z,27.30
2022-08-05T15:36:03.622Z,26.90
2022-08-05T15:38:34.708Z,26.70
2022-08-05T15:41:22.322Z,26.50
2022-08-05T15:43:45.935Z,26.20
2022-08-05T15:46:12.316Z,26.00
2022-08-05T15:48:36.779Z,26.00
2022-08-05T15:51:03.601Z,25.90
2022-08-05T15:53:38.293Z,25.80
2022-08-05T15:56:14.417Z,25.70
2022-08-05T15:58:38.232Z,25.80
2022-08-05T16:01:11.560Z,25.80
2022-08-05T16:03:42.678Z,25.70
2022-08-05T16:06:07.211Z,25.70
2022-08-05T16:08:35.551Z,25.70
2022-08-05T16:10:59.552Z,25.80
2022-08-05T16:13:24.102Z,25.60
2022-08-05T16:15:58.005Z,25.60
2022-08-05T16:18:21.792Z,25.60
2022-08-05T16:20:54.147Z,25.60
2022-08-05T16:23:17.830Z,25.60
2022-08-05T16:25:41.647Z,25.40
2022-08-05T16:28:06.579Z,25.40
2022-08-05T16:30:34.220Z,25.20
2022-08-05T16:33:00.567Z,24.90
2022-08-05T16:35:27.567Z,24.80
2022-08-05T16:38:15.643Z,24.80
2022-08-05T16:40:37.722Z,24.80
2022-08-05T16:43:01.484Z,24.80
2022-08-05T16:46:03.790Z,24.80
2022-08-05T16:48:10.884Z,24.60
2022-08-05T16:50:49.388Z,24.60
2022-08-05T16:53:22.971Z,24.50
2022-08-05T16:55:56.381Z,24.30
2022-08-05T16:58:20.552Z,24.30
2022-08-05T17:00:44.366Z,24.10
2022-08-05T17:03:19.798Z,24.00
2022-08-05T17:05:44.152Z,23.90
2022-08-05T17:08:16.903Z,23.60
2022-08-05T17:11:00.416Z,23.60
2022-08-05T17:13:37.278Z,23.40
2022-08-05T17:16:28.114Z,23.30
2022-08-05T17:18:49.911Z,23.00
2022-08-05T17:21:13.640Z,22.80
2022-08-05T17:24:04.664Z,22.70
2022-08-05T17:26:24.697Z,22.70
2022-08-05T17:28:50.845Z,22.40
2022-08-05T17:31:24.658Z,22.40
2022-08-05T17:33:58.466Z,22.10
2022-08-05T17:36:33.682Z,21.70
2022-08-05T17:39:01.619Z,21.50
2022-08-05T17:42:18.901Z,21.30
2022-08-05T17:44:11.145Z,21.10
2022-08-05T17:46:35.016Z,21.00
2022-08-05T17:48:59.238Z,20.80
2022-08-05T17:51:23.196Z,20.60
2022-08-05T17:53:54.473Z,20.60
2022-08-05T17:56:20.016Z,20.40
2022-08-05T17:58:46.366Z,20.50
2022-08-05T18:01:10.192Z,20.50
2022-08-05T18:04:03.785Z,20.50
2022-08-05T18:06:18.475Z,20.50
2022-08-05T18:08:53.115Z,20.50
2022-08-05T18:11:24.550Z,20.50
2022-08-05T18:13:56.572Z,20.50
2022-08-05T18:16:23.493Z,20.40
2022-08-05T18:18:48.070Z,20.50
2022-08-05T18:21:19.959Z,20.60
2022-08-05T18:23:45.628Z,20.40
2022-08-05T18:26:10.733Z,20.40
2022-08-05T18:28:35.920Z,20.30
2022-08-05T18:30:59.760Z,20.10
2022-08-05T18:33:24.332Z,20.10
2022-08-05T18:35:59.971Z,19.90
2022-08-05T18:38:27.872Z,19.90
2022-08-05T18:41:57.226Z,20.00
2022-08-05T18:43:43.106Z,20.00
2022-08-05T18:46:12.736Z,20.00
2022-08-05T18:48:36.779Z,19.90
2022-08-05T18:52:02.937Z,20.00
2022-08-05T18:54:07.167Z,20.00
2022-08-05T18:56:32.684Z,19.90
2022-08-05T18:59:01.237Z,19.90
2022-08-05T19:01:33.212Z,19.90
2022-08-05T19:03:57.515Z,19.80
2022-08-05T19:06:22.400Z,19.70
2022-08-05T19:08:58.159Z,19.70
2022-08-05T19:11:28.532Z,19.70
2022-08-05T19:14:15.196Z,19.60
2022-08-05T19:16:47.289Z,19.60
2022-08-05T19:19:11.144Z,19.50
2022-08-05T19:21:36.742Z,19.40
2022-08-05T19:24:07.482Z,19.30
2022-08-05T19:26:32.976Z,19.30
2022-08-05T19:28:57.308Z,19.10
2022-08-05T19:31:22.888Z,19.10
2022-08-05T19:33:48.550Z,19.10
2022-08-05T19:36:20.716Z,19.10
2022-08-05T19:38:45.827Z,18.90
2022-08-05T19:41:12.331Z,18.90
2022-08-05T19:44:05.375Z,18.80
2022-08-05T19:46:29.460Z,18.70
2022-08-05T19:48:54.568Z,18.60
2022-08-05T19:52:04.524Z,18.70
2022-08-05T19:54:12.893Z,18.60
2022-08-05T19:56:50.821Z,18.50
2022-08-05T19:59:51.577Z,18.50
2022-08-05T20:02:01.476Z,18.40
2022-08-05T20:04:26.579Z,18.50
2022-08-05T20:06:51.820Z,18.40
2022-08-05T20:09:15.795Z,18.40
2022-08-05T20:11:41.303Z,18.30
2022-08-05T20:14:14.668Z,18.20
2022-08-05T20:16:42.017Z,18.20
2022-08-05T20:19:08.652Z,18.30
2022-08-05T20:21:32.541Z,18.20
2022-08-05T20:23:57.384Z,18.20
2022-08-05T20:26:22.091Z,18.30
2022-08-05T20:28:48.698Z,18.20
2022-08-05T20:31:12.617Z,18.10
2022-08-05T20:33:36.390Z,18.10
2022-08-05T20:36:02.284Z,18.10
2022-08-05T20:38:27.335Z,18.10
2022-08-05T20:40:52.592Z,18.10
2022-08-05T20:43:33.265Z,18.10
2022-08-05T20:46:03.301Z,18.10
2022-08-05T20:48:27.012Z,18.10
2022-08-05T20:50:50.914Z,18.00
2022-08-05T20:53:36.531Z,18.00
2022-08-05T20:56:08.838Z,17.90
2022-08-05T20:58:33.196Z,17.90
2022-08-05T21:00:57.069Z,17.80
2022-08-05T21:03:20.921Z,17.80
2022-08-05T21:05:53.505Z,17.80
2022-08-05T21:08:20.108Z,17.80
2022-08-05T21:10:48.990Z,17.80
2022-08-05T21:13:15.905Z,17.80
2022-08-05T21:15:40.985Z,17.70
2022-08-05T21:18:08.340Z,17.70
2022-08-05T21:20:34.927Z,17.70
2022-08-05T21:22:59.473Z,17.70
2022-08-05T21:25:25.420Z,17.70
2022-08-05T21:27:57.918Z,17.70
2022-08-05T21:30:22.039Z,17.70
2022-08-05T21:32:47.756Z,17.70
2022-08-05T21:35:18.126Z,17.70
2022-08-05T21:37:53.948Z,17.70
2022-08-05T21:40:17.712Z,17.70
2022-08-05T21:42:45.137Z,17.70
2022-08-05T21:45:10.762Z,17.70
2022-08-05T21:47:56.125Z,17.70
2022-08-05T21:50:20.362Z,17.60
2022-08-05T21:52:47.406Z,17.70
2022-08-05T21:55:11.695Z,17.70
2022-08-05T21:57:42.782Z,17.70
2022-08-05T22:00:12.257Z,17.60
2022-08-05T22:02:38.984Z,17.60
2022-08-05T22:05:04.312Z,17.60
2022-08-05T22:07:39.439Z,17.50
2022-08-05T22:10:12.353Z,17.50
2022-08-05T22:12:40.310Z,17.50
2022-08-05T22:15:16.587Z,17.50
2022-08-05T22:17:56.324Z,17.50
2022-08-05T22:20:23.682Z,17.40
2022-08-05T22:23:16.927Z,17.40
2022-08-05T22:26:11.366Z,17.30
2022-08-05T22:28:35.668Z,17.20
2022-08-05T22:31:05.578Z,17.20
2022-08-05T22:33:57.050Z,17.20
2022-08-05T22:36:15.038Z,17.20
2022-08-05T22:38:39.196Z,17.20
2022-08-05T22:41:09.550Z,17.20
2022-08-05T22:43:36.884Z,17.20
2022-08-05T22:46:08.826Z,17.20
2022-08-05T22:48:38.016Z,17.10
2022-08-05T22:51:01.929Z,17.10
2022-08-05T22:53:35.607Z,17.10
2022-08-05T22:55:59.906Z,17.00
2022-08-05T22:58:28.457Z,16.90
2022-08-05T23:00:52.565Z,16.90
2022-08-05T23:03:22.251Z,16.90
2022-08-05T23:06:06.180Z,16.90
2022-08-05T23:08:30.719Z,16.80
2022-08-05T23:10:56.073Z,16.70
2022-08-05T23:13:19.852Z,16.70
2022-08-05T23:15:43.859Z,16.70
2022-08-05T23:18:16.076Z,16.70
2022-08-05T23:20:43.040Z,16.60
2022-08-05T23:23:09.010Z,16.60
2022-08-05T23:25:52.568Z,16.50
2022-08-05T23:28:17.269Z,16.50
2022-08-05T23:30:43.831Z,16.40
2022-08-05T23:33:16.335Z,16.40
2022-08-05T23:35:52.006Z,16.30
2022-08-05T23:38:19.199Z,16.30
2022-08-05T23:40:49.843Z,16.30
2022-08-05T23:43:24.773Z,16.20
2022-08-05T23:45:58.025Z,16.20
2022-08-05T23:48:22.419Z,16.20
2022-08-05T23:50:51.528Z,16.20
2022-08-05T23:53:22.974Z,16.10
2022-08-05T23:55:47.056Z,16.10
2022-08-05T23:58:31.678Z,16.00
